sensor_id;sensor_type;location;lat;lon;timestamp;P1;durP1;ratioP1;P2;durP2;ratioP2
7917;SDS011;4004;42.624;23.386;2023-04-24T00:00:31;7.73;;;4.70;;
7917;SDS011;4004;42.624;23.386;2023-04-24T00:02:58;7.27;;;5.07;;
7917;SDS011;4004;42.624;23.386;2023-04-24T00:05:26;8.10;;;5.40;;
7917;SDS011;4004;42.624;23.386;2023-04-24T00:07:53;6.10;;;5.20;;
7917;SDS011;4004;42.624;23.386;2023-04-24T00:10:20;7.97;;;5.80;;
7917;SDS011;4004;42.624;23.386;2023-04-24T00:12:47;9.20;;;5.20;;
7917;SDS011;4004;42.624;23.386;2023-04-24T00:15:14;6.30;;;5.67;;
7917;SDS011;4004;42.624;23.386;2023-04-24T00:17:40;5.60;;;5.00;;
7917;SDS011;4004;42.624;23.386;2023-04-24T00:20:07;6.90;;;4.97;;
7917;SDS011;4004;42.624;23.386;2023-04-24T00:22:37;4.73;;;4.30;;
7917;SDS011;4004;42.624;23.386;2023-04-24T00:25:05;7.70;;;4.70;;
7917;SDS011;4004;42.624;23.386;2023-04-24T00:27:32;6.50;;;5.07;;
7917;SDS011;4004;42.624;23.386;2023-04-24T00:30:00;6.50;;;4.70;;
7917;SDS011;4004;42.624;23.386;2023-04-24T00:32:26;6.80;;;5.40;;
7917;SDS011;4004;42.624;23.386;2023-04-24T00:34:53;5.97;;;5.17;;
7917;SDS011;4004;42.624;23.386;2023-04-24T00:37:20;6.00;;;5.17;;
7917;SDS011;4004;42.624;23.386;2023-04-24T00:39:48;7.17;;;5.60;;
7917;SDS011;4004;42.624;23.386;2023-04-24T00:42:15;11.17;;;5.50;;
7917;SDS011;4004;42.624;23.386;2023-04-24T00:44:41;7.57;;;5.30;;
7917;SDS011;4004;42.624;23.386;2023-04-24T00:47:08;7.13;;;5.43;;
7917;SDS011;4004;42.624;23.386;2023-04-24T00:49:36;14.07;;;5.77;;
7917;SDS011;4004;42.624;23.386;2023-04-24T00:52:03;6.63;;;4.90;;
7917;SDS011;4004;42.624;23.386;2023-04-24T00:54:32;6.40;;;4.90;;
7917;SDS011;4004;42.624;23.386;2023-04-24T00:57:01;8.07;;;5.10;;
7917;SDS011;4004;42.624;23.386;2023-04-24T00:59:28;7.57;;;5.50;;
7917;SDS011;4004;42.624;23.386;2023-04-24T01:01:55;7.97;;;5.57;;
7917;SDS011;4004;42.624;23.386;2023-04-24T01:04:23;6.23;;;5.60;;
7917;SDS011;4004;42.624;23.386;2023-04-24T01:06:51;7.93;;;6.10;;
7917;SDS011;4004;42.624;23.386;2023-04-24T01:09:18;12.43;;;6.33;;
7917;SDS011;4004;42.624;23.386;2023-04-24T01:11:45;9.10;;;6.63;;
7917;SDS011;4004;42.624;23.386;2023-04-24T01:14:14;9.73;;;7.07;;
7917;SDS011;4004;42.624;23.386;2023-04-24T01:16:41;9.23;;;7.30;;
7917;SDS011;4004;42.624;23.386;2023-04-24T01:19:08;13.30;;;7.57;;
7917;SDS011;4004;42.624;23.386;2023-04-24T01:21:36;9.13;;;7.93;;
7917;SDS011;4004;42.624;23.386;2023-04-24T01:24:05;9.37;;;8.40;;
7917;SDS011;4004;42.624;23.386;2023-04-24T01:26:32;10.80;;;8.17;;
7917;SDS011;4004;42.624;23.386;2023-04-24T01:28:59;11.60;;;8.20;;
7917;SDS011;4004;42.624;23.386;2023-04-24T01:31:26;10.30;;;8.87;;
7917;SDS011;4004;42.624;23.386;2023-04-24T01:33:54;11.10;;;8.17;;
7917;SDS011;4004;42.624;23.386;2023-04-24T01:36:22;9.47;;;8.47;;
7917;SDS011;4004;42.624;23.386;2023-04-24T01:38:52;10.03;;;8.00;;
7917;SDS011;4004;42.624;23.386;2023-04-24T01:41:20;14.30;;;8.73;;
7917;SDS011;4004;42.624;23.386;2023-04-24T01:43:48;9.50;;;8.67;;
7917;SDS011;4004;42.624;23.386;2023-04-24T01:46:15;11.47;;;8.10;;
7917;SDS011;4004;42.624;23.386;2023-04-24T01:48:42;12.03;;;8.07;;
7917;SDS011;4004;42.624;23.386;2023-04-24T01:51:10;8.53;;;7.63;;
7917;SDS011;4004;42.624;23.386;2023-04-24T01:53:37;8.10;;;7.17;;
7917;SDS011;4004;42.624;23.386;2023-04-24T01:56:04;8.60;;;7.20;;
7917;SDS011;4004;42.624;23.386;2023-04-24T01:58:33;8.37;;;7.50;;
7917;SDS011;4004;42.624;23.386;2023-04-24T02:00:59;8.40;;;7.37;;
7917;SDS011;4004;42.624;23.386;2023-04-24T02:03:26;8.67;;;7.77;;
7917;SDS011;4004;42.624;23.386;2023-04-24T02:05:53;10.13;;;7.90;;
7917;SDS011;4004;42.624;23.386;2023-04-24T02:08:20;9.53;;;8.13;;
7917;SDS011;4004;42.624;23.386;2023-04-24T02:10:46;10.10;;;8.20;;
7917;SDS011;4004;42.624;23.386;2023-04-24T02:13:13;8.43;;;7.63;;
7917;SDS011;4004;42.624;23.386;2023-04-24T02:15:41;9.70;;;7.90;;
7917;SDS011;4004;42.624;23.386;2023-04-24T02:18:08;10.27;;;8.17;;
7917;SDS011;4004;42.624;23.386;2023-04-24T02:20:35;8.43;;;7.63;;
7917;SDS011;4004;42.624;23.386;2023-04-24T02:23:02;10.30;;;9.20;;
7917;SDS011;4004;42.624;23.386;2023-04-24T02:25:28;10.47;;;9.27;;
7917;SDS011;4004;42.624;23.386;2023-04-24T02:27:55;12.70;;;10.10;;
7917;SDS011;4004;42.624;23.386;2023-04-24T02:30:22;12.33;;;9.50;;
7917;SDS011;4004;42.624;23.386;2023-04-24T02:32:50;12.60;;;9.70;;
7917;SDS011;4004;42.624;23.386;2023-04-24T02:35:17;14.73;;;9.43;;
7917;SDS011;4004;42.624;23.386;2023-04-24T02:37:44;15.30;;;10.73;;
7917;SDS011;4004;42.624;23.386;2023-04-24T02:40:11;14.40;;;10.57;;
7917;SDS011;4004;42.624;23.386;2023-04-24T02:42:38;15.93;;;10.13;;
7917;SDS011;4004;42.624;23.386;2023-04-24T02:45:05;11.73;;;9.83;;
7917;SDS011;4004;42.624;23.386;2023-04-24T02:47:32;10.80;;;9.70;;
7917;SDS011;4004;42.624;23.386;2023-04-24T02:50:00;10.00;;;8.87;;
7917;SDS011;4004;42.624;23.386;2023-04-24T02:52:27;11.30;;;8.93;;
7917;SDS011;4004;42.624;23.386;2023-04-24T02:54:54;10.80;;;9.20;;
7917;SDS011;4004;42.624;23.386;2023-04-24T02:57:21;13.13;;;9.57;;
7917;SDS011;4004;42.624;23.386;2023-04-24T02:59:48;15.93;;;11.07;;
7917;SDS011;4004;42.624;23.386;2023-04-24T03:02:14;16.57;;;10.90;;
7917;SDS011;4004;42.624;23.386;2023-04-24T03:04:41;11.80;;;10.00;;
7917;SDS011;4004;42.624;23.386;2023-04-24T03:07:10;12.00;;;9.67;;
7917;SDS011;4004;42.624;23.386;2023-04-24T03:09:37;14.13;;;10.83;;
7917;SDS011;4004;42.624;23.386;2023-04-24T03:12:04;13.73;;;10.30;;
7917;SDS011;4004;42.624;23.386;2023-04-24T03:14:31;12.07;;;10.23;;
7917;SDS011;4004;42.624;23.386;2023-04-24T03:16:57;12.77;;;10.60;;
7917;SDS011;4004;42.624;23.386;2023-04-24T03:19:24;15.77;;;11.83;;
7917;SDS011;4004;42.624;23.386;2023-04-24T03:21:51;12.17;;;10.83;;
7917;SDS011;4004;42.624;23.386;2023-04-24T03:24:19;17.57;;;10.67;;
7917;SDS011;4004;42.624;23.386;2023-04-24T03:26:46;14.83;;;11.57;;
7917;SDS011;4004;42.624;23.386;2023-04-24T03:29:13;17.90;;;11.57;;
7917;SDS011;4004;42.624;23.386;2023-04-24T03:31:39;13.60;;;10.70;;
7917;SDS011;4004;42.624;23.386;2023-04-24T03:34:06;15.10;;;11.30;;
7917;SDS011;4004;42.624;23.386;2023-04-24T03:36:33;14.37;;;10.77;;
7917;SDS011;4004;42.624;23.386;2023-04-24T03:39:00;12.33;;;10.03;;
7917;SDS011;4004;42.624;23.386;2023-04-24T03:41:28;13.33;;;9.20;;
7917;SDS011;4004;42.624;23.386;2023-04-24T03:43:55;16.17;;;10.00;;
7917;SDS011;4004;42.624;23.386;2023-04-24T03:46:22;14.67;;;9.30;;
7917;SDS011;4004;42.624;23.386;2023-04-24T03:48:49;15.67;;;9.13;;
7917;SDS011;4004;42.624;23.386;2023-04-24T03:51:15;12.67;;;9.70;;
7917;SDS011;4004;42.624;23.386;2023-04-24T03:53:42;10.50;;;9.50;;
7917;SDS011;4004;42.624;23.386;2023-04-24T03:56:09;13.80;;;9.23;;
7917;SDS011;4004;42.624;23.386;2023-04-24T03:58:37;13.60;;;8.93;;
7917;SDS011;4004;42.624;23.386;2023-04-24T04:01:04;17.67;;;8.53;;
7917;SDS011;4004;42.624;23.386;2023-04-24T04:03:30;12.73;;;8.30;;
7917;SDS011;4004;42.624;23.386;2023-04-24T04:05:57;9.87;;;8.40;;
7917;SDS011;4004;42.624;23.386;2023-04-24T04:08:24;15.10;;;8.07;;
7917;SDS011;4004;42.624;23.386;2023-04-24T04:10:51;14.83;;;8.33;;
7917;SDS011;4004;42.624;23.386;2023-04-24T04:13:18;12.17;;;8.10;;
7917;SDS011;4004;42.624;23.386;2023-04-24T04:15:46;11.80;;;8.33;;
7917;SDS011;4004;42.624;23.386;2023-04-24T04:18:12;10.13;;;7.27;;
7917;SDS011;4004;42.624;23.386;2023-04-24T04:20:40;11.33;;;7.57;;
7917;SDS011;4004;42.624;23.386;2023-04-24T04:23:06;9.00;;;7.50;;
7917;SDS011;4004;42.624;23.386;2023-04-24T04:25:33;11.43;;;7.43;;
7917;SDS011;4004;42.624;23.386;2023-04-24T04:28:00;13.73;;;7.17;;
7917;SDS011;4004;42.624;23.386;2023-04-24T04:30:27;17.27;;;7.23;;
7917;SDS011;4004;42.624;23.386;2023-04-24T04:32:56;12.53;;;7.23;;
7917;SDS011;4004;42.624;23.386;2023-04-24T04:35:22;15.13;;;6.97;;
7917;SDS011;4004;42.624;23.386;2023-04-24T04:37:50;7.67;;;6.87;;
7917;SDS011;4004;42.624;23.386;2023-04-24T04:40:16;13.43;;;7.23;;
7917;SDS011;4004;42.624;23.386;2023-04-24T04:42:43;17.07;;;7.33;;
7917;SDS011;4004;42.624;23.386;2023-04-24T04:45:11;18.80;;;7.93;;
7917;SDS011;4004;42.624;23.386;2023-04-24T04:47:38;16.43;;;7.83;;
7917;SDS011;4004;42.624;23.386;2023-04-24T04:50:07;18.13;;;7.67;;
7917;SDS011;4004;42.624;23.386;2023-04-24T04:52:35;10.87;;;7.33;;
7917;SDS011;4004;42.624;23.386;2023-04-24T04:55:02;14.93;;;8.10;;
7917;SDS011;4004;42.624;23.386;2023-04-24T04:57:30;15.77;;;8.30;;
7917;SDS011;4004;42.624;23.386;2023-04-24T04:59:57;21.57;;;8.70;;
7917;SDS011;4004;42.624;23.386;2023-04-24T05:02:23;15.83;;;9.33;;
7917;SDS011;4004;42.624;23.386;2023-04-24T05:04:50;17.20;;;8.90;;
7917;SDS011;4004;42.624;23.386;2023-04-24T05:07:18;11.13;;;8.47;;
7917;SDS011;4004;42.624;23.386;2023-04-24T05:09:45;15.63;;;9.00;;
7917;SDS011;4004;42.624;23.386;2023-04-24T05:12:12;22.63;;;9.73;;
7917;SDS011;4004;42.624;23.386;2023-04-24T05:14:38;21.00;;;9.30;;
7917;SDS011;4004;42.624;23.386;2023-04-24T05:17:05;17.93;;;8.67;;
7917;SDS011;4004;42.624;23.386;2023-04-24T05:19:32;17.57;;;9.43;;
7917;SDS011;4004;42.624;23.386;2023-04-24T05:22:01;17.93;;;9.07;;
7917;SDS011;4004;42.624;23.386;2023-04-24T05:24:30;19.40;;;9.67;;
7917;SDS011;4004;42.624;23.386;2023-04-24T05:26:57;31.57;;;21.63;;
7917;SDS011;4004;42.624;23.386;2023-04-24T05:29:24;23.60;;;10.43;;
7917;SDS011;4004;42.624;23.386;2023-04-24T05:31:52;16.13;;;8.40;;
7917;SDS011;4004;42.624;23.386;2023-04-24T05:34:18;17.87;;;8.33;;
7917;SDS011;4004;42.624;23.386;2023-04-24T05:36:45;15.23;;;8.13;;
7917;SDS011;4004;42.624;23.386;2023-04-24T05:39:12;11.17;;;8.03;;
7917;SDS011;4004;42.624;23.386;2023-04-24T05:41:41;13.97;;;8.10;;
7917;SDS011;4004;42.624;23.386;2023-04-24T05:44:08;32.27;;;9.50;;
7917;SDS011;4004;42.624;23.386;2023-04-24T05:46:34;26.83;;;9.07;;
7917;SDS011;4004;42.624;23.386;2023-04-24T05:49:01;27.20;;;9.60;;
7917;SDS011;4004;42.624;23.386;2023-04-24T05:51:28;19.00;;;9.13;;
7917;SDS011;4004;42.624;23.386;2023-04-24T05:53:55;10.33;;;7.63;;
7917;SDS011;4004;42.624;23.386;2023-04-24T05:56:22;19.20;;;9.10;;
7917;SDS011;4004;42.624;23.386;2023-04-24T05:58:50;14.27;;;7.80;;
7917;SDS011;4004;42.624;23.386;2023-04-24T06:01:17;11.93;;;7.90;;
7917;SDS011;4004;42.624;23.386;2023-04-24T06:03:44;14.00;;;8.20;;
7917;SDS011;4004;42.624;23.386;2023-04-24T06:06:11;14.97;;;7.57;;
7917;SDS011;4004;42.624;23.386;2023-04-24T06:08:38;13.07;;;7.73;;
7917;SDS011;4004;42.624;23.386;2023-04-24T06:11:05;16.30;;;7.27;;
7917;SDS011;4004;42.624;23.386;2023-04-24T06:13:31;13.60;;;7.70;;
7917;SDS011;4004;42.624;23.386;2023-04-24T06:15:59;17.43;;;8.50;;
7917;SDS011;4004;42.624;23.386;2023-04-24T06:18:26;19.83;;;7.90;;
7917;SDS011;4004;42.624;23.386;2023-04-24T06:20:53;17.27;;;9.03;;
7917;SDS011;4004;42.624;23.386;2023-04-24T06:23:20;20.60;;;7.87;;
7917;SDS011;4004;42.624;23.386;2023-04-24T06:25:47;15.37;;;8.00;;
7917;SDS011;4004;42.624;23.386;2023-04-24T06:28:14;10.97;;;7.40;;
7917;SDS011;4004;42.624;23.386;2023-04-24T06:30:40;16.40;;;8.47;;
7917;SDS011;4004;42.624;23.386;2023-04-24T06:33:09;23.50;;;8.00;;
7917;SDS011;4004;42.624;23.386;2023-04-24T06:35:36;19.27;;;8.13;;
7917;SDS011;4004;42.624;23.386;2023-04-24T06:38:03;12.27;;;7.73;;
7917;SDS011;4004;42.624;23.386;2023-04-24T06:40:30;14.33;;;7.80;;
7917;SDS011;4004;42.624;23.386;2023-04-24T06:42:57;13.23;;;7.23;;
7917;SDS011;4004;42.624;23.386;2023-04-24T06:45:25;18.63;;;8.27;;
7917;SDS011;4004;42.624;23.386;2023-04-24T06:47:51;16.47;;;7.40;;
7917;SDS011;4004;42.624;23.386;2023-04-24T06:50:20;18.70;;;8.17;;
7917;SDS011;4004;42.624;23.386;2023-04-24T06:52:46;17.67;;;7.87;;
7917;SDS011;4004;42.624;23.386;2023-04-24T06:55:13;26.33;;;9.33;;
7917;SDS011;4004;42.624;23.386;2023-04-24T06:57:41;21.30;;;6.97;;
7917;SDS011;4004;42.624;23.386;2023-04-24T07:00:09;14.30;;;6.70;;
7917;SDS011;4004;42.624;23.386;2023-04-24T07:02:36;16.87;;;6.77;;
7917;SDS011;4004;42.624;23.386;2023-04-24T07:05:04;11.07;;;7.27;;
7917;SDS011;4004;42.624;23.386;2023-04-24T07:07:33;11.03;;;6.93;;
7917;SDS011;4004;42.624;23.386;2023-04-24T07:10:02;12.77;;;6.87;;
7917;SDS011;4004;42.624;23.386;2023-04-24T07:12:30;22.50;;;7.20;;
7917;SDS011;4004;42.624;23.386;2023-04-24T07:14:57;11.37;;;7.03;;
7917;SDS011;4004;42.624;23.386;2023-04-24T07:17:24;11.80;;;6.53;;
7917;SDS011;4004;42.624;23.386;2023-04-24T07:19:50;8.77;;;6.43;;
7917;SDS011;4004;42.624;23.386;2023-04-24T07:22:17;8.63;;;6.13;;
7917;SDS011;4004;42.624;23.386;2023-04-24T07:24:45;13.70;;;6.43;;
7917;SDS011;4004;42.624;23.386;2023-04-24T07:27:12;14.67;;;6.93;;
7917;SDS011;4004;42.624;23.386;2023-04-24T07:29:40;16.00;;;7.43;;
7917;SDS011;4004;42.624;23.386;2023-04-24T07:32:06;12.33;;;6.80;;
7917;SDS011;4004;42.624;23.386;2023-04-24T07:34:34;9.83;;;6.13;;
7917;SDS011;4004;42.624;23.386;2023-04-24T07:37:01;9.20;;;6.37;;
7917;SDS011;4004;42.624;23.386;2023-04-24T07:39:28;9.37;;;5.47;;
7917;SDS011;4004;42.624;23.386;2023-04-24T07:41:56;7.50;;;5.47;;
7917;SDS011;4004;42.624;23.386;2023-04-24T07:44:24;7.43;;;4.70;;
7917;SDS011;4004;42.624;23.386;2023-04-24T07:46:52;9.40;;;6.07;;
7917;SDS011;4004;42.624;23.386;2023-04-24T07:49:18;11.53;;;6.53;;
7917;SDS011;4004;42.624;23.386;2023-04-24T07:51:45;9.40;;;6.30;;
7917;SDS011;4004;42.624;23.386;2023-04-24T07:54:12;6.57;;;5.97;;
7917;SDS011;4004;42.624;23.386;2023-04-24T07:56:39;11.47;;;6.50;;
7917;SDS011;4004;42.624;23.386;2023-04-24T07:59:09;7.37;;;6.17;;
7917;SDS011;4004;42.624;23.386;2023-04-24T08:01:36;15.90;;;6.13;;
7917;SDS011;4004;42.624;23.386;2023-04-24T08:04:03;8.63;;;5.83;;
7917;SDS011;4004;42.624;23.386;2023-04-24T08:06:30;14.07;;;6.50;;
7917;SDS011;4004;42.624;23.386;2023-04-24T08:08:57;8.33;;;5.83;;
7917;SDS011;4004;42.624;23.386;2023-04-24T08:11:24;13.40;;;6.00;;
7917;SDS011;4004;42.624;23.386;2023-04-24T08:13:51;8.50;;;5.50;;
7917;SDS011;4004;42.624;23.386;2023-04-24T08:16:20;6.83;;;5.63;;
7917;SDS011;4004;42.624;23.386;2023-04-24T08:18:48;9.30;;;5.53;;
7917;SDS011;4004;42.624;23.386;2023-04-24T08:21:15;10.70;;;5.47;;
7917;SDS011;4004;42.624;23.386;2023-04-24T08:23:43;8.97;;;5.90;;
7917;SDS011;4004;42.624;23.386;2023-04-24T08:26:10;10.00;;;5.93;;
7917;SDS011;4004;42.624;23.386;2023-04-24T08:28:37;7.27;;;5.33;;
7917;SDS011;4004;42.624;23.386;2023-04-24T08:31:04;8.50;;;5.63;;
7917;SDS011;4004;42.624;23.386;2023-04-24T08:33:32;6.97;;;5.57;;
7917;SDS011;4004;42.624;23.386;2023-04-24T08:36:00;10.10;;;4.97;;
7917;SDS011;4004;42.624;23.386;2023-04-24T08:38:27;11.57;;;5.63;;
7917;SDS011;4004;42.624;23.386;2023-04-24T08:40:54;16.03;;;5.07;;
7917;SDS011;4004;42.624;23.386;2023-04-24T08:43:22;8.27;;;5.67;;
7917;SDS011;4004;42.624;23.386;2023-04-24T08:45:50;9.37;;;5.80;;
7917;SDS011;4004;42.624;23.386;2023-04-24T08:48:17;7.33;;;5.73;;
7917;SDS011;4004;42.624;23.386;2023-04-24T08:50:45;7.27;;;5.47;;
7917;SDS011;4004;42.624;23.386;2023-04-24T08:53:14;11.50;;;5.53;;
7917;SDS011;4004;42.624;23.386;2023-04-24T08:55:41;10.67;;;5.10;;
7917;SDS011;4004;42.624;23.386;2023-04-24T08:58:12;5.43;;;4.90;;
7917;SDS011;4004;42.624;23.386;2023-04-24T09:00:39;5.80;;;4.87;;
7917;SDS011;4004;42.624;23.386;2023-04-24T09:03:11;8.97;;;5.43;;
7917;SDS011;4004;42.624;23.386;2023-04-24T09:05:40;9.67;;;5.00;;
7917;SDS011;4004;42.624;23.386;2023-04-24T09:08:12;8.83;;;4.80;;
7917;SDS011;4004;42.624;23.386;2023-04-24T09:10:40;9.07;;;8.00;;
7917;SDS011;4004;42.624;23.386;2023-04-24T09:13:07;10.00;;;5.67;;
7917;SDS011;4004;42.624;23.386;2023-04-24T09:15:35;8.43;;;5.13;;
7917;SDS011;4004;42.624;23.386;2023-04-24T09:18:02;7.80;;;4.77;;
7917;SDS011;4004;42.624;23.386;2023-04-24T09:20:30;12.77;;;4.87;;
7917;SDS011;4004;42.624;23.386;2023-04-24T09:22:57;5.77;;;5.17;;
7917;SDS011;4004;42.624;23.386;2023-04-24T09:25:26;8.53;;;5.10;;
7917;SDS011;4004;42.624;23.386;2023-04-24T09:28:00;8.23;;;4.57;;
7917;SDS011;4004;42.624;23.386;2023-04-24T09:30:27;6.47;;;4.53;;
7917;SDS011;4004;42.624;23.386;2023-04-24T09:33:09;5.60;;;4.70;;
7917;SDS011;4004;42.624;23.386;2023-04-24T09:35:36;4.70;;;4.20;;
7917;SDS011;4004;42.624;23.386;2023-04-24T09:38:06;9.07;;;4.97;;
7917;SDS011;4004;42.624;23.386;2023-04-24T09:40:34;6.10;;;4.37;;
7917;SDS011;4004;42.624;23.386;2023-04-24T09:43:01;5.43;;;4.63;;
7917;SDS011;4004;42.624;23.386;2023-04-24T09:45:28;7.43;;;4.50;;
7917;SDS011;4004;42.624;23.386;2023-04-24T09:48:02;8.53;;;4.50;;
7917;SDS011;4004;42.624;23.386;2023-04-24T09:50:30;5.70;;;4.60;;
7917;SDS011;4004;42.624;23.386;2023-04-24T09:53:01;5.80;;;4.53;;
7917;SDS011;4004;42.624;23.386;2023-04-24T09:55:29;11.03;;;5.20;;
7917;SDS011;4004;42.624;23.386;2023-04-24T09:57:58;7.57;;;4.63;;
7917;SDS011;4004;42.624;23.386;2023-04-24T10:00:27;6.10;;;4.17;;
7917;SDS011;4004;42.624;23.386;2023-04-24T10:02:56;7.87;;;4.47;;
7917;SDS011;4004;42.624;23.386;2023-04-24T10:05:24;13.63;;;4.93;;
7917;SDS011;4004;42.624;23.386;2023-04-24T10:07:56;6.77;;;4.00;;
7917;SDS011;4004;42.624;23.386;2023-04-24T10:10:23;10.40;;;4.83;;
7917;SDS011;4004;42.624;23.386;2023-04-24T10:12:50;6.93;;;4.00;;
7917;SDS011;4004;42.624;23.386;2023-04-24T10:15:19;9.50;;;4.10;;
7917;SDS011;4004;42.624;23.386;2023-04-24T10:17:47;5.87;;;3.70;;
7917;SDS011;4004;42.624;23.386;2023-04-24T10:20:17;8.20;;;4.20;;
7917;SDS011;4004;42.624;23.386;2023-04-24T10:22:46;11.27;;;4.57;;
7917;SDS011;4004;42.624;23.386;2023-04-24T10:25:16;4.53;;;3.90;;
7917;SDS011;4004;42.624;23.386;2023-04-24T10:27:43;9.20;;;4.07;;
7917;SDS011;4004;42.624;23.386;2023-04-24T10:30:11;6.70;;;4.17;;
7917;SDS011;4004;42.624;23.386;2023-04-24T10:32:40;10.50;;;4.83;;
7917;SDS011;4004;42.624;23.386;2023-04-24T10:35:07;6.50;;;4.10;;
7917;SDS011;4004;42.624;23.386;2023-04-24T10:37:35;16.23;;;4.70;;
7917;SDS011;4004;42.624;23.386;2023-04-24T10:40:04;6.13;;;3.67;;
7917;SDS011;4004;42.624;23.386;2023-04-24T10:42:33;9.00;;;4.33;;
7917;SDS011;4004;42.624;23.386;2023-04-24T10:45:04;9.73;;;4.30;;
7917;SDS011;4004;42.624;23.386;2023-04-24T10:47:40;4.80;;;3.60;;
7917;SDS011;4004;42.624;23.386;2023-04-24T10:50:08;8.27;;;3.60;;
7917;SDS011;4004;42.624;23.386;2023-04-24T10:52:44;4.70;;;3.20;;
7917;SDS011;4004;42.624;23.386;2023-04-24T10:55:12;4.30;;;3.47;;
7917;SDS011;4004;42.624;23.386;2023-04-24T10:57:40;5.00;;;3.47;;
7917;SDS011;4004;42.624;23.386;2023-04-24T11:00:27;4.37;;;3.30;;
7917;SDS011;4004;42.624;23.386;2023-04-24T11:02:56;8.30;;;3.60;;
7917;SDS011;4004;42.624;23.386;2023-04-24T11:08:23;3.70;;;3.20;;
7917;SDS011;4004;42.624;23.386;2023-04-24T11:10:57;5.63;;;3.47;;
7917;SDS011;4004;42.624;23.386;2023-04-24T11:13:26;8.43;;;3.53;;
7917;SDS011;4004;42.624;23.386;2023-04-24T11:16:13;6.13;;;3.70;;
7917;SDS011;4004;42.624;23.386;2023-04-24T11:18:51;7.27;;;3.20;;
7917;SDS011;4004;42.624;23.386;2023-04-24T11:21:19;8.50;;;3.57;;
7917;SDS011;4004;42.624;23.386;2023-04-24T11:23:48;3.63;;;3.10;;
7917;SDS011;4004;42.624;23.386;2023-04-24T11:26:17;7.40;;;3.30;;
7917;SDS011;4004;42.624;23.386;2023-04-24T11:28:48;10.00;;;4.20;;
7917;SDS011;4004;42.624;23.386;2023-04-24T11:31:34;10.50;;;4.17;;
7917;SDS011;4004;42.624;23.386;2023-04-24T11:34:10;14.43;;;6.80;;
7917;SDS011;4004;42.624;23.386;2023-04-24T11:36:38;24.37;;;5.07;;
7917;SDS011;4004;42.624;23.386;2023-04-24T11:39:05;21.43;;;3.30;;
7917;SDS011;4004;42.624;23.386;2023-04-24T11:41:33;9.80;;;3.20;;
7917;SDS011;4004;42.624;23.386;2023-04-24T11:44:00;5.20;;;2.90;;
7917;SDS011;4004;42.624;23.386;2023-04-24T11:46:28;4.20;;;2.33;;
7917;SDS011;4004;42.624;23.386;2023-04-24T11:48:55;5.37;;;2.90;;
7917;SDS011;4004;42.624;23.386;2023-04-24T11:51:24;4.07;;;3.37;;
7917;SDS011;4004;42.624;23.386;2023-04-24T11:53:51;4.87;;;3.33;;
7917;SDS011;4004;42.624;23.386;2023-04-24T11:56:19;10.57;;;3.27;;
7917;SDS011;4004;42.624;23.386;2023-04-24T11:58:47;7.50;;;3.53;;
7917;SDS011;4004;42.624;23.386;2023-04-24T12:01:14;12.07;;;4.30;;
7917;SDS011;4004;42.624;23.386;2023-04-24T12:03:40;14.23;;;4.20;;
7917;SDS011;4004;42.624;23.386;2023-04-24T12:06:10;8.67;;;3.40;;
7917;SDS011;4004;42.624;23.386;2023-04-24T12:08:39;8.80;;;3.97;;
7917;SDS011;4004;42.624;23.386;2023-04-24T12:11:06;10.93;;;4.20;;
7917;SDS011;4004;42.624;23.386;2023-04-24T12:13:33;7.53;;;3.17;;
7917;SDS011;4004;42.624;23.386;2023-04-24T12:16:02;5.43;;;3.50;;
7917;SDS011;4004;42.624;23.386;2023-04-24T12:18:30;5.97;;;3.60;;
7917;SDS011;4004;42.624;23.386;2023-04-24T12:23:43;7.60;;;4.60;;
7917;SDS011;4004;42.624;23.386;2023-04-24T12:26:11;8.73;;;4.53;;
7917;SDS011;4004;42.624;23.386;2023-04-24T12:28:38;20.40;;;5.77;;
7917;SDS011;4004;42.624;23.386;2023-04-24T12:31:06;7.70;;;3.57;;
7917;SDS011;4004;42.624;23.386;2023-04-24T12:33:34;10.80;;;3.90;;
7917;SDS011;4004;42.624;23.386;2023-04-24T12:36:01;4.73;;;3.77;;
7917;SDS011;4004;42.624;23.386;2023-04-24T12:38:28;3.77;;;3.40;;
7917;SDS011;4004;42.624;23.386;2023-04-24T12:41:04;4.53;;;2.80;;
7917;SDS011;4004;42.624;23.386;2023-04-24T12:43:32;4.60;;;3.47;;
7917;SDS011;4004;42.624;23.386;2023-04-24T12:45:59;7.10;;;3.97;;
7917;SDS011;4004;42.624;23.386;2023-04-24T12:48:26;5.07;;;3.60;;
7917;SDS011;4004;42.624;23.386;2023-04-24T12:50:53;6.47;;;4.27;;
7917;SDS011;4004;42.624;23.386;2023-04-24T12:53:20;6.63;;;4.10;;
7917;SDS011;4004;42.624;23.386;2023-04-24T12:55:47;8.27;;;4.10;;
7917;SDS011;4004;42.624;23.386;2023-04-24T12:58:19;8.17;;;4.20;;
7917;SDS011;4004;42.624;23.386;2023-04-24T13:00:46;6.57;;;4.10;;
7917;SDS011;4004;42.624;23.386;2023-04-24T13:03:13;7.00;;;3.93;;
7917;SDS011;4004;42.624;23.386;2023-04-24T13:05:41;5.97;;;4.10;;
7917;SDS011;4004;42.624;23.386;2023-04-24T13:08:08;5.33;;;4.40;;
7917;SDS011;4004;42.624;23.386;2023-04-24T13:10:35;6.83;;;4.77;;
7917;SDS011;4004;42.624;23.386;2023-04-24T13:13:02;6.10;;;4.70;;
7917;SDS011;4004;42.624;23.386;2023-04-24T13:15:30;6.83;;;4.10;;
7917;SDS011;4004;42.624;23.386;2023-04-24T13:17:57;5.90;;;3.93;;
7917;SDS011;4004;42.624;23.386;2023-04-24T13:20:24;5.53;;;4.57;;
7917;SDS011;4004;42.624;23.386;2023-04-24T13:22:51;5.90;;;4.90;;
7917;SDS011;4004;42.624;23.386;2023-04-24T13:25:18;7.27;;;4.57;;
7917;SDS011;4004;42.624;23.386;2023-04-24T13:27:45;11.37;;;5.00;;
7917;SDS011;4004;42.624;23.386;2023-04-24T13:30:12;7.33;;;4.70;;
7917;SDS011;4004;42.624;23.386;2023-04-24T13:32:40;4.43;;;4.00;;
7917;SDS011;4004;42.624;23.386;2023-04-24T13:35:07;4.70;;;4.20;;
7917;SDS011;4004;42.624;23.386;2023-04-24T13:37:34;7.90;;;5.30;;
7917;SDS011;4004;42.624;23.386;2023-04-24T13:40:01;6.50;;;5.10;;
7917;SDS011;4004;42.624;23.386;2023-04-24T13:42:31;8.77;;;5.00;;
7917;SDS011;4004;42.624;23.386;2023-04-24T13:44:57;5.60;;;4.63;;
7917;SDS011;4004;42.624;23.386;2023-04-24T13:47:25;5.80;;;5.00;;
7917;SDS011;4004;42.624;23.386;2023-04-24T13:49:53;11.40;;;5.40;;
7917;SDS011;4004;42.624;23.386;2023-04-24T13:52:20;7.70;;;4.37;;
7917;SDS011;4004;42.624;23.386;2023-04-24T13:54:46;6.87;;;4.40;;
7917;SDS011;4004;42.624;23.386;2023-04-24T13:57:13;6.17;;;4.90;;
7917;SDS011;4004;42.624;23.386;2023-04-24T13:59:41;6.20;;;5.00;;
7917;SDS011;4004;42.624;23.386;2023-04-24T14:02:08;8.30;;;5.50;;
7917;SDS011;4004;42.624;23.386;2023-04-24T14:04:35;6.43;;;5.13;;
7917;SDS011;4004;42.624;23.386;2023-04-24T14:07:03;5.30;;;4.47;;
7917;SDS011;4004;42.624;23.386;2023-04-24T14:09:29;5.90;;;4.83;;
7917;SDS011;4004;42.624;23.386;2023-04-24T14:11:56;9.07;;;5.57;;
7917;SDS011;4004;42.624;23.386;2023-04-24T14:14:23;8.00;;;5.00;;
7917;SDS011;4004;42.624;23.386;2023-04-24T14:16:50;7.53;;;5.10;;
7917;SDS011;4004;42.624;23.386;2023-04-24T14:19:17;8.13;;;5.37;;
7917;SDS011;4004;42.624;23.386;2023-04-24T14:21:44;6.40;;;4.20;;
7917;SDS011;4004;42.624;23.386;2023-04-24T14:24:12;10.50;;;5.90;;
7917;SDS011;4004;42.624;23.386;2023-04-24T14:26:38;4.53;;;3.73;;
7917;SDS011;4004;42.624;23.386;2023-04-24T14:29:05;4.00;;;3.60;;
7917;SDS011;4004;42.624;23.386;2023-04-24T14:31:32;4.63;;;3.83;;
7917;SDS011;4004;42.624;23.386;2023-04-24T14:33:59;6.77;;;4.33;;
7917;SDS011;4004;42.624;23.386;2023-04-24T14:36:26;4.27;;;3.87;;
7917;SDS011;4004;42.624;23.386;2023-04-24T14:38:52;5.93;;;4.30;;
7917;SDS011;4004;42.624;23.386;2023-04-24T14:41:21;3.57;;;3.27;;
7917;SDS011;4004;42.624;23.386;2023-04-24T14:43:47;4.00;;;3.37;;
7917;SDS011;4004;42.624;23.386;2023-04-24T14:46:14;3.70;;;3.40;;
7917;SDS011;4004;42.624;23.386;2023-04-24T14:48:41;3.97;;;3.57;;
7917;SDS011;4004;42.624;23.386;2023-04-24T14:51:08;8.37;;;7.57;;
7917;SDS011;4004;42.624;23.386;2023-04-24T14:53:34;3.83;;;3.53;;
7917;SDS011;4004;42.624;23.386;2023-04-24T14:56:01;6.30;;;3.97;;
7917;SDS011;4004;42.624;23.386;2023-04-24T14:58:29;7.50;;;4.57;;
7917;SDS011;4004;42.624;23.386;2023-04-24T15:00:56;6.60;;;3.87;;